sensor_id;sensor_type;location;lat;lon;timestamp;pressure;altitude;pressure_sealevel;temperature;humidity
51585;BME280;37669;50.312;18.670;2022-10-16T00:02:14;49347.66;;;-145.86;79.17
51585;BME280;37669;50.312;18.670;2022-10-16T00:04:41;49323.91;;;-145.86;79.25
51585;BME280;37669;50.312;18.670;2022-10-16T00:07:08;49357.56;;;-145.86;79.25
51585;BME280;37669;50.312;18.670;2022-10-16T00:09:35;49341.72;;;-145.86;79.75
51585;BME280;37669;50.312;18.670;2022-10-16T00:12:03;49373.41;;;-145.86;79.43
51585;BME280;37669;50.312;18.670;2022-10-16T00:14:32;49353.63;;;-145.86;79.70
51585;BME280;37669;50.312;18.670;2022-10-16T00:16:59;49327.88;;;-145.86;79.81
51585;BME280;37669;50.312;18.670;2022-10-16T00:19:27;49345.69;;;-145.86;79.70
51585;BME280;37669;50.312;18.670;2022-10-16T00:21:54;49341.72;;;-145.86;79.70
51585;BME280;37669;50.312;18.670;2022-10-16T00:24:21;49367.47;;;-145.86;79.71
51585;BME280;37669;50.312;18.670;2022-10-16T00:26:49;49357.56;;;-145.86;79.77
51585;BME280;37669;50.312;18.670;2022-10-16T00:29:17;49339.75;;;-145.86;79.77
51585;BME280;37669;50.312;18.670;2022-10-16T00:31:44;49383.31;;;-145.86;79.89
51585;BME280;37669;50.312;18.670;2022-10-16T00:34:11;49359.56;;;-145.86;80.17
51585;BME280;37669;50.312;18.670;2022-10-16T00:36:40;49351.63;;;-145.86;80.27
51585;BME280;37669;50.312;18.670;2022-10-16T00:39:07;49347.66;;;-145.86;80.51
51585;BME280;37669;50.312;18.670;2022-10-16T00:41:34;49367.47;;;-145.86;80.69
51585;BME280;37669;50.312;18.670;2022-10-16T00:44:02;49335.78;;;-145.86;80.60
51585;BME280;37669;50.312;18.670;2022-10-16T00:46:35;49355.59;;;-145.86;80.92
51585;BME280;37669;50.312;18.670;2022-10-16T00:49:08;49343.72;;;-145.86;80.84
51585;BME280;37669;50.312;18.670;2022-10-16T00:51:40;49355.59;;;-145.86;80.62
51585;BME280;37669;50.312;18.670;2022-10-16T00:54:10;49329.84;;;-145.86;80.84
51585;BME280;37669;50.312;18.670;2022-10-16T00:56:39;49355.59;;;-145.86;80.92
51585;BME280;37669;50.312;18.670;2022-10-16T00:59:10;49327.88;;;-145.86;81.12
51585;BME280;37669;50.312;18.670;2022-10-16T01:01:40;49345.69;;;-145.86;81.15
51585;BME280;37669;50.312;18.670;2022-10-16T01:04:07;49365.50;;;-145.86;81.17
51585;BME280;37669;50.312;18.670;2022-10-16T01:06:40;49341.72;;;-145.86;81.33
51585;BME280;37669;50.312;18.670;2022-10-16T01:09:15;49333.81;;;-145.86;81.34
51585;BME280;37669;50.312;18.670;2022-10-16T01:11:51;49363.50;;;-145.86;81.81
51585;BME280;37669;50.312;18.670;2022-10-16T01:14:25;49337.78;;;-145.86;81.67
51585;BME280;37669;50.312;18.670;2022-10-16T01:17:00;49361.53;;;-145.86;81.90
51585;BME280;37669;50.312;18.670;2022-10-16T01:19:48;49325.88;;;-145.86;81.72
51585;BME280;37669;50.312;18.670;2022-10-16T01:22:20;49335.78;;;-145.86;81.53
51585;BME280;37669;50.312;18.670;2022-10-16T01:24:49;49347.66;;;-145.86;81.94
51585;BME280;37669;50.312;18.670;2022-10-16T01:27:20;49325.88;;;-145.86;81.95
51585;BME280;37669;50.312;18.670;2022-10-16T01:29:53;49373.41;;;-145.86;81.88
51585;BME280;37669;50.312;18.670;2022-10-16T01:32:28;49357.56;;;-145.86;81.75
51585;BME280;37669;50.312;18.670;2022-10-16T01:34:58;49349.66;;;-145.86;81.83
51585;BME280;37669;50.312;18.670;2022-10-16T01:37:35;49357.56;;;-145.86;81.75
51585;BME280;37669;50.312;18.670;2022-10-16T01:40:07;49317.97;;;-145.86;82.25
51585;BME280;37669;50.312;18.670;2022-10-16T01:42:40;49314.00;;;-145.86;81.97
51585;BME280;37669;50.312;18.670;2022-10-16T01:45:11;49345.69;;;-145.86;82.04
51585;BME280;37669;50.312;18.670;2022-10-16T01:47:40;49345.69;;;-145.86;82.00
51585;BME280;37669;50.312;18.670;2022-10-16T01:50:09;49343.72;;;-145.86;82.12
51585;BME280;37669;50.312;18.670;2022-10-16T01:52:39;49355.59;;;-145.86;81.96
51585;BME280;37669;50.312;18.670;2022-10-16T01:55:10;49325.88;;;-145.86;82.06
51585;BME280;37669;50.312;18.670;2022-10-16T01:57:44;49345.69;;;-145.86;81.99
51585;BME280;37669;50.312;18.670;2022-10-16T02:00:14;49353.63;;;-145.86;82.21
51585;BME280;37669;50.312;18.670;2022-10-16T02:02:47;49363.50;;;-145.86;82.65
51585;BME280;37669;50.312;18.670;2022-10-16T02:05:20;49323.91;;;-145.86;82.50
51585;BME280;37669;50.312;18.670;2022-10-16T02:07:49;49341.72;;;-145.86;82.84
51585;BME280;37669;50.312;18.670;2022-10-16T02:10:16;49319.94;;;-145.86;82.94
51585;BME280;37669;50.312;18.670;2022-10-16T02:12:49;49389.25;;;-145.86;83.01
51585;BME280;37669;50.312;18.670;2022-10-16T02:15:18;49333.81;;;-145.86;82.96
51585;BME280;37669;50.312;18.670;2022-10-16T02:17:45;49355.59;;;-145.86;82.58
51585;BME280;37669;50.312;18.670;2022-10-16T02:20:12;49325.88;;;-145.86;82.43
51585;BME280;37669;50.312;18.670;2022-10-16T02:22:40;49333.81;;;-145.86;82.34
51585;BME280;37669;50.312;18.670;2022-10-16T02:25:12;49353.63;;;-145.86;82.25
51585;BME280;37669;50.312;18.670;2022-10-16T03:55:10;49333.81;;;-145.86;82.67
51585;BME280;37669;50.312;18.670;2022-10-16T03:57:38;49321.94;;;-145.86;82.76
51585;BME280;37669;50.312;18.670;2022-10-16T04:00:06;49333.81;;;-145.86;82.77
51585;BME280;37669;50.312;18.670;2022-10-16T04:02:33;49341.72;;;-145.86;82.78
51585;BME280;37669;50.312;18.670;2022-10-16T04:05:00;49345.69;;;-145.86;82.62
51585;BME280;37669;50.312;18.670;2022-10-16T04:07:27;49345.69;;;-145.86;82.42
51585;BME280;37669;50.312;18.670;2022-10-16T04:09:54;49361.53;;;-145.86;82.71
51585;BME280;37669;50.312;18.670;2022-10-16T04:12:24;49337.78;;;-145.86;82.56
51585;BME280;37669;50.312;18.670;2022-10-16T04:14:51;49371.44;;;-145.86;82.69
51585;BME280;37669;50.312;18.670;2022-10-16T04:17:18;49337.78;;;-145.86;82.33
51585;BME280;37669;50.312;18.670;2022-10-16T04:19:45;49387.28;;;-145.86;82.26
51585;BME280;37669;50.312;18.670;2022-10-16T04:22:12;49361.53;;;-145.86;82.25
51585;BME280;37669;50.312;18.670;2022-10-16T04:24:40;49353.63;;;-145.86;82.23
51585;BME280;37669;50.312;18.670;2022-10-16T04:29:34;49325.88;;;-145.86;82.31
51585;BME280;37669;50.312;18.670;2022-10-16T04:32:02;49347.66;;;-145.86;82.51
51585;BME280;37669;50.312;18.670;2022-10-16T04:34:29;49373.41;;;-145.86;82.30
51585;BME280;37669;50.312;18.670;2022-10-16T04:36:56;49347.66;;;-145.86;82.70
51585;BME280;37669;50.312;18.670;2022-10-16T04:39:23;49321.94;;;-145.86;82.70
51585;BME280;37669;50.312;18.670;2022-10-16T04:41:50;49345.69;;;-145.86;82.91
51585;BME280;37669;50.312;18.670;2022-10-16T04:44:17;49331.81;;;-145.86;82.94
51585;BME280;37669;50.312;18.670;2022-10-16T04:46:45;49381.34;;;-145.86;82.97
51585;BME280;37669;50.312;18.670;2022-10-16T04:49:12;49312.03;;;-145.86;83.40
51585;BME280;37669;50.312;18.670;2022-10-16T04:51:39;49304.09;;;-145.86;83.27
51585;BME280;37669;50.312;18.670;2022-10-16T04:54:07;49341.72;;;-145.86;83.67
51585;BME280;37669;50.312;18.670;2022-10-16T04:56:35;49349.66;;;-145.86;83.65
51585;BME280;37669;50.312;18.670;2022-10-16T04:59:08;49337.78;;;-145.86;83.94
51585;BME280;37669;50.312;18.670;2022-10-16T05:01:36;49339.75;;;-145.86;84.01
51585;BME280;37669;50.312;18.670;2022-10-16T05:04:04;49319.94;;;-145.86;84.24
51585;BME280;37669;50.312;18.670;2022-10-16T05:06:31;49341.72;;;-145.86;84.62
51585;BME280;37669;50.312;18.670;2022-10-16T05:08:58;49333.81;;;-145.86;84.75
51585;BME280;37669;50.312;18.670;2022-10-16T05:11:25;49321.94;;;-145.86;85.29
51585;BME280;37669;50.312;18.670;2022-10-16T05:13:53;49337.78;;;-145.86;85.13
51585;BME280;37669;50.312;18.670;2022-10-16T05:16:20;49345.69;;;-145.86;85.43
51585;BME280;37669;50.312;18.670;2022-10-16T05:18:47;49321.94;;;-145.86;85.38
51585;BME280;37669;50.312;18.670;2022-10-16T05:21:15;49355.59;;;-145.86;85.67
51585;BME280;37669;50.312;18.670;2022-10-16T05:23:42;49325.88;;;-145.86;85.90
51585;BME280;37669;50.312;18.670;2022-10-16T05:26:09;49306.09;;;-145.86;85.91
51585;BME280;37669;50.312;18.670;2022-10-16T05:28:36;49300.16;;;-145.86;85.85
51585;BME280;37669;50.312;18.670;2022-10-16T05:31:04;49333.81;;;-145.86;85.64
51585;BME280;37669;50.312;18.670;2022-10-16T05:33:32;49349.66;;;-145.86;85.51
51585;BME280;37669;50.312;18.670;2022-10-16T05:36:01;49325.88;;;-145.86;85.46
51585;BME280;37669;50.312;18.670;2022-10-16T05:38:30;49349.66;;;-145.86;85.44
51585;BME280;37669;50.312;18.670;2022-10-16T05:40:57;49325.88;;;-145.86;85.64
51585;BME280;37669;50.312;18.670;2022-10-16T05:43:24;49345.69;;;-145.86;85.33
51585;BME280;37669;50.312;18.670;2022-10-16T05:45:58;49341.72;;;-145.86;85.43
51585;BME280;37669;50.312;18.670;2022-10-16T05:48:27;49341.72;;;-145.86;85.45
51585;BME280;37669;50.312;18.670;2022-10-16T05:50:59;49349.66;;;-145.86;85.51
51585;BME280;37669;50.312;18.670;2022-10-16T05:53:36;49361.53;;;-145.86;85.58
51585;BME280;37669;50.312;18.670;2022-10-16T05:56:08;49302.13;;;-145.86;85.33
51585;BME280;37669;50.312;18.670;2022-10-16T05:58:41;49331.81;;;-145.86;85.45
51585;BME280;37669;50.312;18.670;2022-10-16T06:01:14;49312.03;;;-145.86;85.56
51585;BME280;37669;50.312;18.670;2022-10-16T06:03:47;49361.53;;;-145.86;85.44
51585;BME280;37669;50.312;18.670;2022-10-16T06:06:24;49310.03;;;-145.86;85.44
51585;BME280;37669;50.312;18.670;2022-10-16T06:08:57;49357.56;;;-145.86;85.47
51585;BME280;37669;50.312;18.670;2022-10-16T06:11:27;49323.91;;;-145.86;85.09
51585;BME280;37669;50.312;18.670;2022-10-16T06:13:56;49353.63;;;-145.86;85.21
51585;BME280;37669;50.312;18.670;2022-10-16T06:16:23;49349.66;;;-145.86;85.09
51585;BME280;37669;50.312;18.670;2022-10-16T06:18:51;49369.47;;;-145.86;84.61
51585;BME280;37669;50.312;18.670;2022-10-16T06:21:19;49385.28;;;-145.86;84.48
51585;BME280;37669;50.312;18.670;2022-10-16T06:23:47;49319.94;;;-145.86;84.97
51585;BME280;37669;50.312;18.670;2022-10-16T06:26:17;49341.72;;;-145.86;84.45
51585;BME280;37669;50.312;18.670;2022-10-16T06:28:45;49339.75;;;-145.86;83.64
51585;BME280;37669;50.312;18.670;2022-10-16T06:31:13;49335.78;;;-145.86;83.37
51585;BME280;37669;50.312;18.670;2022-10-16T06:33:41;49355.59;;;-145.86;83.23
51585;BME280;37669;50.312;18.670;2022-10-16T06:36:09;49339.75;;;-145.86;83.01
51585;BME280;37669;50.312;18.670;2022-10-16T06:38:37;49365.50;;;-145.86;82.62
51585;BME280;37669;50.312;18.670;2022-10-16T06:41:06;49373.41;;;-145.86;82.60
51585;BME280;37669;50.312;18.670;2022-10-16T06:43:34;49339.75;;;-145.86;82.55
51585;BME280;37669;50.312;18.670;2022-10-16T06:46:03;49353.63;;;-145.86;81.91
51585;BME280;37669;50.312;18.670;2022-10-16T06:48:31;49387.28;;;-145.86;81.84
51585;BME280;37669;50.312;18.670;2022-10-16T06:50:59;49359.56;;;-145.86;80.96
51585;BME280;37669;50.312;18.670;2022-10-16T06:53:29;49397.19;;;-145.86;81.05
51585;BME280;37669;50.312;18.670;2022-10-16T06:55:56;49377.38;;;-145.86;81.27
51585;BME280;37669;50.312;18.670;2022-10-16T06:58:24;49391.25;;;-145.86;80.75
51585;BME280;37669;50.312;18.670;2022-10-16T07:00:56;49349.66;;;-145.86;80.67
51585;BME280;37669;50.312;18.670;2022-10-16T07:03:23;49385.28;;;-145.86;80.59
51585;BME280;37669;50.312;18.670;2022-10-16T07:05:50;49333.81;;;-145.86;80.22
51585;BME280;37669;50.312;18.670;2022-10-16T07:08:17;49331.81;;;-145.86;79.59
51585;BME280;37669;50.312;18.670;2022-10-16T07:10:44;49347.66;;;-145.86;78.98
51585;BME280;37669;50.312;18.670;2022-10-16T07:13:11;49371.44;;;-145.86;79.52
51585;BME280;37669;50.312;18.670;2022-10-16T07:15:40;49355.59;;;-145.86;78.69
51585;BME280;37669;50.312;18.670;2022-10-16T07:18:08;49381.34;;;-145.86;78.64
51585;BME280;37669;50.312;18.670;2022-10-16T07:20:35;49369.47;;;-145.86;78.31
51585;BME280;37669;50.312;18.670;2022-10-16T07:23:03;49407.09;;;-145.86;77.71
51585;BME280;37669;50.312;18.670;2022-10-16T07:25:30;49369.47;;;-145.86;77.28
51585;BME280;37669;50.312;18.670;2022-10-16T07:30:23;49369.47;;;-145.86;74.13
51585;BME280;37669;50.312;18.670;2022-10-16T07:32:50;49415.00;;;-145.86;74.92
51585;BME280;37669;50.312;18.670;2022-10-16T07:35:19;49395.19;;;-145.86;75.38
51585;BME280;37669;50.312;18.670;2022-10-16T07:37:46;49393.22;;;-145.86;75.20
51585;BME280;37669;50.312;18.670;2022-10-16T07:40:13;49393.22;;;-145.86;74.69
51585;BME280;37669;50.312;18.670;2022-10-16T07:42:40;49381.34;;;-145.86;74.59
51585;BME280;37669;50.312;18.670;2022-10-16T07:45:08;49407.09;;;-145.86;74.64
51585;BME280;37669;50.312;18.670;2022-10-16T07:47:35;49416.97;;;-145.86;74.01
51585;BME280;37669;50.312;18.670;2022-10-16T07:50:03;49415.00;;;-145.86;74.52
51585;BME280;37669;50.312;18.670;2022-10-16T07:52:32;49393.22;;;-145.86;73.57
51585;BME280;37669;50.312;18.670;2022-10-16T07:54:59;49413.03;;;-145.86;72.94
51585;BME280;37669;50.312;18.670;2022-10-16T07:57:26;49393.22;;;-145.86;73.34
51585;BME280;37669;50.312;18.670;2022-10-16T07:59:53;49401.13;;;-145.86;71.63
51585;BME280;37669;50.312;18.670;2022-10-16T08:02:20;49377.38;;;-145.86;72.30
51585;BME280;37669;50.312;18.670;2022-10-16T08:04:47;49389.25;;;-145.86;72.99
51585;BME280;37669;50.312;18.670;2022-10-16T08:07:15;49353.63;;;-145.86;72.59
51585;BME280;37669;50.312;18.670;2022-10-16T08:09:44;49399.16;;;-145.86;72.57
51585;BME280;37669;50.312;18.670;2022-10-16T08:12:11;49409.06;;;-145.86;71.46
51585;BME280;37669;50.312;18.670;2022-10-16T08:14:38;49393.22;;;-145.86;71.18
51585;BME280;37669;50.312;18.670;2022-10-16T08:17:05;49424.91;;;-145.86;69.99
51585;BME280;37669;50.312;18.670;2022-10-16T08:19:32;49450.66;;;-145.86;68.78
51585;BME280;37669;50.312;18.670;2022-10-16T08:22:00;49416.97;;;-145.86;67.55
51585;BME280;37669;50.312;18.670;2022-10-16T08:24:27;49409.06;;;-145.86;66.77
51585;BME280;37669;50.312;18.670;2022-10-16T08:26:57;49458.56;;;-145.86;65.86
51585;BME280;37669;50.312;18.670;2022-10-16T08:29:24;49428.88;;;-145.86;65.98
51585;BME280;37669;50.312;18.670;2022-10-16T08:31:51;49413.03;;;-145.86;67.18
51585;BME280;37669;50.312;18.670;2022-10-16T08:34:18;49434.81;;;-145.86;66.12
51585;BME280;37669;50.312;18.670;2022-10-16T08:36:46;49416.97;;;-145.86;65.77
51585;BME280;37669;50.312;18.670;2022-10-16T08:39:13;49413.03;;;-145.86;66.45
51585;BME280;37669;50.312;18.670;2022-10-16T08:42:23;49444.72;;;-145.86;67.38
51585;BME280;37669;50.312;18.670;2022-10-16T08:45:21;49436.78;;;-145.86;66.23
51585;BME280;37669;50.312;18.670;2022-10-16T08:47:54;49436.78;;;-145.86;66.45
51585;BME280;37669;50.312;18.670;2022-10-16T08:50:26;49426.88;;;-145.86;66.59
51585;BME280;37669;50.312;18.670;2022-10-16T08:52:54;49438.78;;;-145.86;66.00
51585;BME280;37669;50.312;18.670;2022-10-16T08:55:31;49426.88;;;-145.86;65.38
51585;BME280;37669;50.312;18.670;2022-10-16T08:58:01;49450.66;;;-145.86;65.36
51585;BME280;37669;50.312;18.670;2022-10-16T09:00:29;49480.34;;;-145.86;65.68
51585;BME280;37669;50.312;18.670;2022-10-16T09:03:04;49413.03;;;-145.86;65.09
51585;BME280;37669;50.312;18.670;2022-10-16T09:06:06;49411.03;;;-145.86;64.30
51585;BME280;37669;50.312;18.670;2022-10-16T09:08:43;49401.13;;;-145.86;65.28
51585;BME280;37669;50.312;18.670;2022-10-16T09:11:17;49409.06;;;-145.86;65.17
51585;BME280;37669;50.312;18.670;2022-10-16T09:13:53;49444.72;;;-145.86;65.15
51585;BME280;37669;50.312;18.670;2022-10-16T09:16:25;49418.97;;;-145.86;64.37
51585;BME280;37669;50.312;18.670;2022-10-16T09:19:00;49460.56;;;-145.86;63.79
51585;BME280;37669;50.312;18.670;2022-10-16T09:21:31;49428.88;;;-145.86;65.32
51585;BME280;37669;50.312;18.670;2022-10-16T09:24:10;49460.56;;;-145.86;65.12
51585;BME280;37669;50.312;18.670;2022-10-16T09:26:38;49383.31;;;-145.86;63.29
51585;BME280;37669;50.312;18.670;2022-10-16T09:29:09;49373.41;;;-145.86;62.51
51585;BME280;37669;50.312;18.670;2022-10-16T09:31:36;49452.63;;;-145.86;62.35
51585;BME280;37669;50.312;18.670;2022-10-16T09:34:05;49446.69;;;-145.86;62.38
51585;BME280;37669;50.312;18.670;2022-10-16T09:36:40;49407.09;;;-145.86;60.99
51585;BME280;37669;50.312;18.670;2022-10-16T09:39:10;49440.75;;;-145.86;60.14
51585;BME280;37669;50.312;18.670;2022-10-16T09:41:39;49420.94;;;-145.86;60.63
51585;BME280;37669;50.312;18.670;2022-10-16T09:44:19;49464.50;;;-145.86;60.66
51585;BME280;37669;50.312;18.670;2022-10-16T09:46:48;49448.66;;;-145.86;61.17
51585;BME280;37669;50.312;18.670;2022-10-16T09:49:23;49428.88;;;-145.86;61.31
51585;BME280;37669;50.312;18.670;2022-10-16T09:52:02;49446.69;;;-145.86;61.58
51585;BME280;37669;50.312;18.670;2022-10-16T09:54:29;49444.72;;;-145.86;61.36
51585;BME280;37669;50.312;18.670;2022-10-16T09:57:05;49420.94;;;-145.86;61.87
51585;BME280;37669;50.312;18.670;2022-10-16T09:59:33;49428.88;;;-145.86;60.31
51585;BME280;37669;50.312;18.670;2022-10-16T10:02:03;49420.94;;;-145.86;60.39
51585;BME280;37669;50.312;18.670;2022-10-16T10:04:40;49436.78;;;-145.86;60.64
51585;BME280;37669;50.312;18.670;2022-10-16T10:07:21;49432.81;;;-145.86;60.97
51585;BME280;37669;50.312;18.670;2022-10-16T10:09:51;49420.94;;;-145.86;61.00
51585;BME280;37669;50.312;18.670;2022-10-16T10:12:20;49466.50;;;-145.86;61.53
51585;BME280;37669;50.312;18.670;2022-10-16T10:14:50;49426.88;;;-145.86;61.89
51585;BME280;37669;50.312;18.670;2022-10-16T10:17:20;49436.78;;;-145.86;61.14
51585;BME280;37669;50.312;18.670;2022-10-16T10:19:52;49430.84;;;-145.86;60.83
51585;BME280;37669;50.312;18.670;2022-10-16T10:22:27;49409.06;;;-145.86;61.38
51585;BME280;37669;50.312;18.670;2022-10-16T10:25:01;49440.75;;;-145.86;62.27
51585;BME280;37669;50.312;18.670;2022-10-16T10:27:39;49409.06;;;-145.86;62.57
51585;BME280;37669;50.312;18.670;2022-10-16T10:30:15;49450.66;;;-145.86;62.94
51585;BME280;37669;50.312;18.670;2022-10-16T10:32:55;49440.75;;;-145.86;63.22
51585;BME280;37669;50.312;18.670;2022-10-16T10:35:30;49446.69;;;-145.86;62.70
51585;BME280;37669;50.312;18.670;2022-10-16T10:38:09;49440.75;;;-145.86;62.74
51585;BME280;37669;50.312;18.670;2022-10-16T10:40:49;49442.72;;;-145.86;62.78
51585;BME280;37669;50.312;18.670;2022-10-16T10:43:32;49464.50;;;-145.86;62.10
51585;BME280;37669;50.312;18.670;2022-10-16T10:46:09;49416.97;;;-145.86;62.57
51585;BME280;37669;50.312;18.670;2022-10-16T10:49:00;49418.97;;;-145.86;62.00
51585;BME280;37669;50.312;18.670;2022-10-16T10:51:37;49428.88;;;-145.86;62.00
51585;BME280;37669;50.312;18.670;2022-10-16T10:54:14;49426.88;;;-145.86;62.10
51585;BME280;37669;50.312;18.670;2022-10-16T10:56:48;49418.97;;;-145.86;62.89
51585;BME280;37669;50.312;18.670;2022-10-16T11:02:23;49442.72;;;-145.86;62.09
51585;BME280;37669;50.312;18.670;2022-10-16T11:08:09;49428.88;;;-145.86;61.25
51585;BME280;37669;50.312;18.670;2022-10-16T11:10:44;49458.56;;;-145.86;61.91
51585;BME280;37669;50.312;18.670;2022-10-16T11:13:21;49432.81;;;-145.86;61.60
51585;BME280;37669;50.312;18.670;2022-10-16T11:15:52;49466.50;;;-145.86;61.49
51585;BME280;37669;50.312;18.670;2022-10-16T11:18:26;49403.13;;;-145.86;61.99
51585;BME280;37669;50.312;18.670;2022-10-16T11:21:00;49458.56;;;-145.86;62.35
51585;BME280;37669;50.312;18.670;2022-10-16T11:23:31;49436.78;;;-145.86;61.29
51585;BME280;37669;50.312;18.670;2022-10-16T11:26:04;49472.44;;;-145.86;60.84
51585;BME280;37669;50.312;18.670;2022-10-16T11:28:37;49450.66;;;-145.86;60.47
51585;BME280;37669;50.312;18.670;2022-10-16T11:31:10;49436.78;;;-145.86;59.60
51585;BME280;37669;50.312;18.670;2022-10-16T11:33:45;49446.69;;;-145.86;60.18
51585;BME280;37669;50.312;18.670;2022-10-16T11:36:17;49430.84;;;-145.86;61.06
51585;BME280;37669;50.312;18.670;2022-10-16T11:38:51;49444.72;;;-145.86;59.73
51585;BME280;37669;50.312;18.670;2022-10-16T11:41:26;49458.56;;;-145.86;59.71
51585;BME280;37669;50.312;18.670;2022-10-16T11:44:12;49480.34;;;-145.86;59.28
51585;BME280;37669;50.312;18.670;2022-10-16T11:46:43;49464.50;;;-145.86;59.11
51585;BME280;37669;50.312;18.670;2022-10-16T11:49:15;49452.63;;;-145.86;58.30
51585;BME280;37669;50.312;18.670;2022-10-16T11:51:50;49405.09;;;-145.86;59.52
51585;BME280;37669;50.312;18.670;2022-10-16T11:54:26;49428.88;;;-145.86;58.36
51585;BME280;37669;50.312;18.670;2022-10-16T11:56:59;49460.56;;;-145.86;58.60
51585;BME280;37669;50.312;18.670;2022-10-16T11:59:32;49458.56;;;-145.86;57.71
51585;BME280;37669;50.312;18.670;2022-10-16T12:02:33;49476.41;;;-145.86;58.88
51585;BME280;37669;50.312;18.670;2022-10-16T12:05:24;49456.59;;;-145.86;57.69
51585;BME280;37669;50.312;18.670;2022-10-16T12:08:06;49448.66;;;-145.86;58.17
51585;BME280;37669;50.312;18.670;2022-10-16T12:10:37;49492.25;;;-145.86;57.16
51585;BME280;37669;50.312;18.670;2022-10-16T12:13:29;49488.28;;;-145.86;56.77
51585;BME280;37669;50.312;18.670;2022-10-16T12:16:19;49484.31;;;-145.86;56.10
51585;BME280;37669;50.312;18.670;2022-10-16T12:18:48;49472.44;;;-145.86;56.52
51585;BME280;37669;50.312;18.670;2022-10-16T12:21:17;49470.44;;;-145.86;55.94
51585;BME280;37669;50.312;18.670;2022-10-16T12:23:50;49456.59;;;-145.86;55.34
51585;BME280;37669;50.312;18.670;2022-10-16T12:26:25;49430.84;;;-145.86;56.12
51585;BME280;37669;50.312;18.670;2022-10-16T12:28:54;49450.66;;;-145.86;54.92
51585;BME280;37669;50.312;18.670;2022-10-16T12:31:21;49490.25;;;-145.86;55.07
51585;BME280;37669;50.312;18.670;2022-10-16T12:33:57;49488.28;;;-145.86;56.31
51585;BME280;37669;50.312;18.670;2022-10-16T12:36:32;49486.28;;;-145.86;56.26
51585;BME280;37669;50.312;18.670;2022-10-16T12:38:59;49448.66;;;-145.86;56.92
51585;BME280;37669;50.312;18.670;2022-10-16T12:41:29;49480.34;;;-145.86;57.10
51585;BME280;37669;50.312;18.670;2022-10-16T12:43:57;49458.56;;;-145.86;57.47
51585;BME280;37669;50.312;18.670;2022-10-16T12:46:38;49440.75;;;-145.86;57.14
51585;BME280;37669;50.312;18.670;2022-10-16T12:49:22;49460.56;;;-145.86;57.04
51585;BME280;37669;50.312;18.670;2022-10-16T12:51:52;49454.59;;;-145.86;57.01
51585;BME280;37669;50.312;18.670;2022-10-16T12:54:22;49498.19;;;-145.86;57.89
51585;BME280;37669;50.312;18.670;2022-10-16T12:57:03;49430.84;;;-145.86;58.40
51585;BME280;37669;50.312;18.670;2022-10-16T12:59:40;49450.66;;;-145.86;58.06
51585;BME280;37669;50.312;18.670;2022-10-16T13:22:21;49482.34;;;-145.86;58.79
51585;BME280;37669;50.312;18.670;2022-10-16T13:25:08;49456.59;;;-145.86;59.20
51585;BME280;37669;50.312;18.670;2022-10-16T13:27:46;49462.53;;;-145.86;59.50
51585;BME280;37669;50.312;18.670;2022-10-16T13:30:19;49480.34;;;-145.86;59.33
51585;BME280;37669;50.312;18.670;2022-10-16T13:32:49;49460.56;;;-145.86;59.36
51585;BME280;37669;50.312;18.670;2022-10-16T13:35:22;49452.63;;;-145.86;59.08
51585;BME280;37669;50.312;18.670;2022-10-16T13:37:51;49486.28;;;-145.86;58.87
51585;BME280;37669;50.312;18.670;2022-10-16T13:40:29;49468.47;;;-145.86;59.60
51585;BME280;37669;50.312;18.670;2022-10-16T13:42:56;49448.66;;;-145.86;58.56
51585;BME280;37669;50.312;18.670;2022-10-16T13:45:26;49452.63;;;-145.86;58.52
51585;BME280;37669;50.312;18.670;2022-10-16T13:48:01;49448.66;;;-145.86;59.43
51585;BME280;37669;50.312;18.670;2022-10-16T13:50:29;49480.34;;;-145.86;59.96
51585;BME280;37669;50.312;18.670;2022-10-16T13:53:05;49460.56;;;-145.86;58.78
51585;BME280;37669;50.312;18.670;2022-10-16T13:55:32;49432.81;;;-145.86;58.13
51585;BME280;37669;50.312;18.670;2022-10-16T13:58:07;49454.59;;;-145.86;58.38
51585;BME280;37669;50.312;18.670;2022-10-16T14:00:35;49418.97;;;-145.86;57.53
51585;BME280;37669;50.312;18.670;2022-10-16T14:03:04;49432.81;;;-145.86;58.15
51585;BME280;37669;50.312;18.670;2022-10-16T14:05:33;49444.72;;;-145.86;58.25
51585;BME280;37669;50.312;18.670;2022-10-16T14:08:00;49460.56;;;-145.86;56.96
51585;BME280;37669;50.312;18.670;2022-10-16T14:10:31;49450.66;;;-145.86;57.44
51585;BME280;37669;50.312;18.670;2022-10-16T14:13:01;49452.63;;;-145.86;57.74
51585;BME280;37669;50.312;18.670;2022-10-16T14:15:30;49462.53;;;-145.86;58.33
51585;BME280;37669;50.312;18.670;2022-10-16T14:17:58;49432.81;;;-145.86;57.59
51585;BME280;37669;50.312;18.670;2022-10-16T14:20:27;49438.78;;;-145.86;57.64
51585;BME280;37669;50.312;18.670;2022-10-16T14:23:02;49430.84;;;-145.86;56.79
51585;BME280;37669;50.312;18.670;2022-10-16T14:25:32;49436.78;;;-145.86;57.12
51585;BME280;37669;50.312;18.670;2022-10-16T14:28:04;49464.50;;;-145.86;56.31
51585;BME280;37669;50.312;18.670;2022-10-16T14:30:33;49444.72;;;-145.86;55.84
51585;BME280;37669;50.312;18.670;2022-10-16T14:33:03;49432.81;;;-145.86;55.87
51585;BME280;37669;50.312;18.670;2022-10-16T14:35:32;49448.66;;;-145.86;56.43
51585;BME280;37669;50.312;18.670;2022-10-16T14:38:02;49428.88;;;-145.86;56.61
51585;BME280;37669;50.312;18.670;2022-10-16T14:40:35;49448.66;;;-145.86;56.69
51585;BME280;37669;50.312;18.670;2022-10-16T14:43:03;49432.81;;;-145.86;57.12
51585;BME280;37669;50.312;18.670;2022-10-16T14:45:32;49444.72;;;-145.86;57.20
51585;BME280;37669;50.312;18.670;2022-10-16T14:48:02;49448.66;;;-145.86;57.37
51585;BME280;37669;50.312;18.670;2022-10-16T14:50:32;49458.56;;;-145.86;57.91